aviador You're here:

PAGM Decoded Metar

GAMBELL in AK, USA
Report Time2018-06-24 00:10:00
UTC Time2018-06-24 00:58:43
Flight Rules mvfr MVFR
Wind160° at 20 kt
W.Decomp.*RWY 16: 19.6 kt HW 4.2 kt LCW
W.Rank160° ranks 12
Current wind is above 160° avg. (12.1)
Visibility9999 m
Phenomena:N/A
Clouds:Overcast 015 Hf
Expected CloudBase > 1,200 ft AGL from Temp-Dew spread
Ceiling1,500 ft
Temp09°C (ISA -6)
Dew Point06°C (82% RH)
AAT0.9°C
QNH1017 hPa
Density Alt-696 ft
Elevation26 ft
Report Wrong Elevation
Raw Report
PAGM 240010Z AUTO 16020KT 10SM OVC015 09/06 A3004 RMK AO2=

Extra information for PAGM:More info

Metar Taf Metar & Taf Last 4 Metars F.Rules Stats Wind Profile Meteogram Temp Stats Airport Information Weather charts Add Link Nearby VenuesMetar ALERT Operation Metar Decoded Social comments

AIRNAV info for PAGM